Terminal Aerodrome Forecast
Issued by NWS

Home | Current Version | Previous Version | Text Only | Print | Product List | Glossary On
Versions: 1 2 3 4 5 6 7 8 9 10 11 12 13 14 15 16 17 18 19 20 21 22 23 24 25 26 27 28 29 30 31 32 33 34 35 36
000
FTAK31 PAFA 251329 AAA
TAFAFA
TAF AMD
PAFA 251329Z 2513/2618 20003KT P6SM -SHRA SCT020 BKN030 BKN040
     FM252100 24006KT P6SM -SHRA BKN035 OVC050
     FM260600 23004KT P6SM -SHRA OVC050
     FM261700 26005KT P6SM SCT050 SCT100=

USA.gov is the U.S. government's official web portal to all federal, state and local government web resources and services.